Airfield :
LOGIN :

Register | Disclaimer

   EN    FR    IT 

 










Legend :    VFR   Marginal VFR   IFR   Intensive IFR   Very Intensive IFR
Visi :
Ceiling :
>= 8 km
>= 3000ft
5 to 8 km
1000 to 3000 ft
1500m to 5 km
500 to 1000 ft
800 to 1500m
200 to 500 ft
< 800m
< 200 ft
Symbols :   Thunderstorms  Fog  Heavy snow  Heavy precipitations  Wind > 20 kt
SIGMETs :     Misc.  Thunderstorms  Icing  Turbulence  Mountain Waves  Volcanic Ashes






- Airport Elevation : 239 ft
- IATA code : VRN


LIPX - Villafranca Int. Verona

CURRENT METAR :
  • 050720Z 24008KT 9999 FEW005 BKN070 17/14 Q0996

EXPIRED METARs :
  • 050650Z 23011KT 9999 FEW005 SCT040 BKN070 16/14 Q0996
  • 050620Z 24010KT 9999 FEW005 SCT040 BKN070 17/15 Q0996
  • 050550Z 25008KT 9999 FEW005 SCT030 BKN070 16/14 Q0996
  • 050520Z 24007KT 9999 FEW005 SCT040 BKN070 16/14 Q0996
  • 050450Z AUTO 24009KT 9999 BKN054/// 15/14 Q0996

TAF TAF LIPX
Valid from the 05 at 06:00 until the 05 at 15:00 UTC


050500Z 0506/0515 36005KT 4000 BR SCT015
BECMG 0509/0511 8000



MET'MAP, your aeronautical weather chart ! - Copyright ORBIFLY December 2007 - Disclaimer

ORBIFLY MET'MAP TEAM :

Programming & Development : Alexandra Zaïnal
Concept & original design : Baudouin d'Aumeries
Assistance for programming : Marc-Olivier Méhu
Technical & hardware support : Manuel Goepfert

Contact : metmap@orbifly.com




SOURCES & CREDITS :

   NOAA